createdAt,value
2022-08-17T00:00:43.099Z,19.78
2022-08-17T00:03:23.079Z,19.73
2022-08-17T00:06:30.917Z,19.69
2022-08-17T00:09:38.490Z,19.63
2022-08-17T00:12:46.834Z,19.57
2022-08-17T00:15:54.703Z,19.58
2022-08-17T00:19:08.309Z,19.69
2022-08-17T00:22:34.430Z,19.75
2022-08-17T00:25:11.123Z,19.80
2022-08-17T00:28:19.337Z,19.72
2022-08-17T00:31:28.858Z,19.61
2022-08-17T00:34:36.309Z,19.55
2022-08-17T00:37:44.587Z,19.53
2022-08-17T00:40:55.996Z,19.55
2022-08-17T00:43:55.960Z,19.54
2022-08-17T00:47:04.610Z,19.51
2022-08-17T00:50:13.755Z,19.50
2022-08-17T00:53:21.561Z,19.55
2022-08-17T00:56:31.016Z,19.55
2022-08-17T00:59:38.594Z,19.46
2022-08-17T01:02:46.447Z,19.35
2022-08-17T01:05:54.527Z,19.24
2022-08-17T01:09:02.891Z,19.25
2022-08-17T01:12:10.848Z,19.23
2022-08-17T01:15:18.580Z,19.15
2022-08-17T01:18:26.724Z,19.10
2022-08-17T01:21:34.495Z,19.13
2022-08-17T01:24:42.252Z,19.08
2022-08-17T01:27:50.314Z,18.95
2022-08-17T01:30:59.540Z,18.87
2022-08-17T01:34:07.996Z,18.90
2022-08-17T01:37:16.319Z,18.86
2022-08-17T01:40:23.925Z,18.82
2022-08-17T01:43:32.146Z,18.91
2022-08-17T01:46:40.418Z,18.97
2022-08-17T01:49:47.904Z,18.99
2022-08-17T01:52:56.082Z,18.92
2022-08-17T01:56:03.886Z,18.98
2022-08-17T01:59:11.904Z,19.01
2022-08-17T02:02:30.638Z,19.01
2022-08-17T02:05:25.499Z,18.97
2022-08-17T02:08:39.547Z,18.86
2022-08-17T02:11:38.439Z,18.74
2022-08-17T02:14:46.214Z,18.70
2022-08-17T02:17:54.705Z,18.72
2022-08-17T02:21:03.080Z,18.67
2022-08-17T02:24:10.905Z,18.58
2022-08-17T02:27:18.923Z,18.52
2022-08-17T02:31:02.094Z,18.46
2022-08-17T02:33:42.128Z,18.42
2022-08-17T02:36:37.848Z,18.44
2022-08-17T02:39:45.360Z,18.42
2022-08-17T02:42:53.199Z,18.34
2022-08-17T02:46:01.078Z,18.31
2022-08-17T02:49:09.363Z,18.33
2022-08-17T02:52:17.071Z,18.37
2022-08-17T02:55:22.370Z,18.33
2022-08-17T02:58:35.075Z,18.28
2022-08-17T03:01:33.258Z,18.24
2022-08-17T03:04:41.156Z,18.22
2022-08-17T03:07:49.305Z,18.22
2022-08-17T03:10:56.686Z,18.25
2022-08-17T03:14:04.827Z,18.31
2022-08-17T03:17:17.182Z,18.36
2022-08-17T03:20:14.177Z,18.40
2022-08-17T03:23:23.974Z,18.43
2022-08-17T03:26:33.431Z,18.42
2022-08-17T03:29:40.953Z,18.43
2022-08-17T03:32:48.950Z,18.33
2022-08-17T03:35:56.400Z,18.25
2022-08-17T03:39:04.666Z,18.19
2022-08-17T03:42:14.326Z,18.15
2022-08-17T03:45:17.767Z,18.07
2022-08-17T03:48:26.101Z,17.95
2022-08-17T03:51:34.410Z,17.88
2022-08-17T03:54:41.750Z,17.82
2022-08-17T03:57:49.971Z,17.73
2022-08-17T04:00:57.844Z,17.67
2022-08-17T04:04:05.572Z,17.63
2022-08-17T04:07:13.422Z,17.54
2022-08-17T04:10:25.944Z,17.51
2022-08-17T04:13:24.770Z,17.51
2022-08-17T04:16:32.997Z,17.54
2022-08-17T04:19:41.317Z,17.53
2022-08-17T04:22:49.281Z,17.50
2022-08-17T04:25:59.382Z,17.59
2022-08-17T04:29:07.350Z,17.78
2022-08-17T04:32:14.841Z,17.91
2022-08-17T04:35:23.178Z,17.95
2022-08-17T04:38:31.277Z,17.85
2022-08-17T04:41:38.575Z,17.76
2022-08-17T04:44:40.486Z,17.74
2022-08-17T04:47:47.836Z,17.84
2022-08-17T04:50:55.817Z,17.95
2022-08-17T04:54:03.888Z,18.13
2022-08-17T04:57:11.268Z,18.28
2022-08-17T05:00:19.463Z,18.36
2022-08-17T05:03:27.229Z,18.42
2022-08-17T05:06:34.973Z,18.47
2022-08-17T05:09:42.904Z,18.58
2022-08-17T05:12:50.765Z,18.76
2022-08-17T05:15:58.468Z,18.86
2022-08-17T05:19:06.945Z,18.95
2022-08-17T05:22:14.766Z,18.99
2022-08-17T05:25:25.643Z,19.02
2022-08-17T05:28:26.603Z,19.08
2022-08-17T05:31:24.571Z,19.10
2022-08-17T05:34:32.449Z,19.10
2022-08-17T05:37:40.273Z,19.10
2022-08-17T05:40:48.125Z,19.14
2022-08-17T05:43:56.567Z,19.28
2022-08-17T05:47:04.356Z,19.43
2022-08-17T05:50:12.376Z,19.63
2022-08-17T05:53:15.079Z,19.78
2022-08-17T05:56:29.765Z,19.94
2022-08-17T05:59:27.640Z,20.20
2022-08-17T06:02:35.071Z,20.46
2022-08-17T06:05:43.302Z,20.65
2022-08-17T06:08:51.434Z,20.76
2022-08-17T06:11:59.592Z,20.96
2022-08-17T06:15:08.047Z,21.17
2022-08-17T06:18:18.990Z,21.32
2022-08-17T06:21:16.506Z,21.46
2022-08-17T06:24:24.595Z,21.60
2022-08-17T06:27:31.961Z,21.75
2022-08-17T06:30:59.251Z,21.92
2022-08-17T06:33:45.223Z,21.99
2022-08-17T06:36:53.072Z,22.17
2022-08-17T06:40:02.053Z,22.29
2022-08-17T06:43:10.205Z,22.41
2022-08-17T06:46:18.326Z,22.53
2022-08-17T06:49:26.200Z,22.60
2022-08-17T06:52:45.584Z,22.72
2022-08-17T06:55:39.811Z,22.83
2022-08-17T06:58:47.402Z,22.90
2022-08-17T07:01:55.573Z,22.90
2022-08-17T07:05:03.214Z,22.94
2022-08-17T07:08:11.384Z,23.05
2022-08-17T07:11:19.516Z,23.11
2022-08-17T07:14:26.868Z,23.17
2022-08-17T07:17:46.934Z,23.24
2022-08-17T07:20:39.680Z,23.32
2022-08-17T07:23:47.842Z,23.42
2022-08-17T07:26:56.182Z,23.55
2022-08-17T07:30:06.851Z,23.72
2022-08-17T07:33:07.615Z,23.86
2022-08-17T07:36:09.945Z,23.97
2022-08-17T07:39:17.756Z,24.05
2022-08-17T07:42:25.388Z,24.20
2022-08-17T07:45:33.098Z,24.34
2022-08-17T07:48:41.290Z,24.52
2022-08-17T07:51:48.924Z,24.67
2022-08-17T07:54:56.753Z,24.85
2022-08-17T07:58:04.445Z,25.01
2022-08-17T08:01:11.856Z,25.15
2022-08-17T08:04:49.680Z,25.32
2022-08-17T08:07:27.069Z,25.53
2022-08-17T08:10:34.491Z,25.62
2022-08-17T08:13:42.896Z,25.79
2022-08-17T08:16:50.207Z,26.02
2022-08-17T08:19:58.243Z,26.24
2022-08-17T08:23:06.367Z,26.35
2022-08-17T08:26:17.975Z,26.39
2022-08-17T08:29:15.964Z,26.49
2022-08-17T08:32:25.011Z,26.50
2022-08-17T08:35:32.609Z,26.59
2022-08-17T08:38:40.907Z,26.81
2022-08-17T08:41:48.721Z,27.04
2022-08-17T08:45:00.923Z,27.24
2022-08-17T08:48:05.282Z,27.48
2022-08-17T08:51:02.723Z,27.73
2022-08-17T08:54:10.379Z,27.92
2022-08-17T08:57:32.843Z,28.16
2022-08-17T09:00:23.687Z,28.21
2022-08-17T09:03:51.754Z,28.23
2022-08-17T09:06:39.301Z,28.26
2022-08-17T09:09:37.582Z,28.40
2022-08-17T09:12:45.973Z,28.47
2022-08-17T09:15:54.976Z,28.53
2022-08-17T09:19:04.720Z,28.70
2022-08-17T09:22:13.168Z,28.78
2022-08-17T09:25:21.890Z,28.82
2022-08-17T09:28:30.134Z,28.90
2022-08-17T09:31:47.093Z,29.03
2022-08-17T09:34:47.028Z,29.22
2022-08-17T09:37:45.507Z,29.28
2022-08-17T09:40:53.767Z,29.35
2022-08-17T09:44:01.577Z,29.41
2022-08-17T09:47:09.609Z,29.59
2022-08-17T09:50:17.452Z,29.77
2022-08-17T09:53:25.669Z,29.92
2022-08-17T09:56:33.617Z,30.08
2022-08-17T09:59:41.878Z,30.30
2022-08-17T10:02:49.839Z,30.47
2022-08-17T10:05:57.868Z,30.68
2022-08-17T10:09:06.117Z,30.75
2022-08-17T10:12:13.622Z,30.80
2022-08-17T10:15:14.922Z,30.80
2022-08-17T10:18:25.570Z,30.84
2022-08-17T10:21:29.251Z,31.02
2022-08-17T10:24:37.115Z,31.12
2022-08-17T10:27:44.899Z,31.13
2022-08-17T10:31:05.297Z,31.20
2022-08-17T10:33:58.411Z,31.28
2022-08-17T10:37:06.302Z,31.58
2022-08-17T10:40:14.149Z,31.65
2022-08-17T10:43:22.144Z,31.60
2022-08-17T10:46:31.168Z,31.57
2022-08-17T10:49:28.038Z,31.60
2022-08-17T10:52:36.358Z,31.73
2022-08-17T10:55:44.507Z,31.58
2022-08-17T10:58:53.503Z,31.36
2022-08-17T11:02:02.013Z,31.35
2022-08-17T11:05:10.324Z,31.36
2022-08-17T11:08:18.485Z,31.27
2022-08-17T11:11:27.786Z,31.46
2022-08-17T11:14:36.329Z,31.67
2022-08-17T11:17:44.780Z,31.67
2022-08-17T11:20:52.677Z,31.96
2022-08-17T11:24:00.961Z,32.32
2022-08-17T11:27:08.764Z,32.54
2022-08-17T11:30:09.814Z,32.64
2022-08-17T11:33:17.716Z,32.91
2022-08-17T11:36:19.207Z,32.95
2022-08-17T11:39:27.782Z,32.80
2022-08-17T11:42:35.131Z,32.93
2022-08-17T11:45:43.409Z,32.86
2022-08-17T11:48:50.805Z,32.92
2022-08-17T11:51:59.054Z,32.86
2022-08-17T11:55:33.546Z,32.70
2022-08-17T11:58:12.457Z,32.57
2022-08-17T12:01:20.750Z,32.37
2022-08-17T12:04:28.293Z,32.40
2022-08-17T12:07:36.668Z,32.27
2022-08-17T12:10:45.082Z,32.35
2022-08-17T12:13:52.605Z,32.58
2022-08-17T12:17:01.035Z,32.80
2022-08-17T12:20:08.934Z,32.96
2022-08-17T12:23:16.619Z,32.66
2022-08-17T12:26:24.929Z,32.59
2022-08-17T12:29:38.793Z,32.55
2022-08-17T12:32:36.717Z,32.52
2022-08-17T12:35:45.085Z,32.57
2022-08-17T12:38:53.465Z,32.39
2022-08-17T12:42:02.874Z,32.44
2022-08-17T12:45:11.857Z,32.74
2022-08-17T12:48:19.931Z,33.39
2022-08-17T12:51:28.162Z,33.78
2022-08-17T12:54:36.520Z,34.07
2022-08-17T12:57:44.662Z,34.24
2022-08-17T13:00:53.503Z,34.19
2022-08-17T13:04:01.151Z,33.73
2022-08-17T13:07:10.168Z,33.31
2022-08-17T13:10:18.400Z,32.85
2022-08-17T13:13:26.712Z,32.47
2022-08-17T13:16:34.903Z,32.32
2022-08-17T13:19:43.214Z,32.55
2022-08-17T13:22:51.689Z,33.19
2022-08-17T13:26:00.557Z,34.02
2022-08-17T13:29:08.890Z,34.44
2022-08-17T13:32:19.984Z,34.41
2022-08-17T13:35:38.878Z,34.19
2022-08-17T13:38:34.115Z,33.94
2022-08-17T13:41:42.575Z,33.74
2022-08-17T13:44:50.358Z,33.58
2022-08-17T13:47:58.888Z,33.22
2022-08-17T13:51:07.168Z,33.01
2022-08-17T13:54:15.714Z,32.91
2022-08-17T13:57:24.643Z,32.77
2022-08-17T14:00:33.015Z,32.73
2022-08-17T14:03:41.303Z,32.67
2022-08-17T14:06:53.252Z,32.61
2022-08-17T14:09:47.408Z,32.52
2022-08-17T14:12:55.678Z,32.37
2022-08-17T14:16:04.359Z,32.29
2022-08-17T14:19:12.163Z,32.36
2022-08-17T14:22:21.004Z,32.42
2022-08-17T14:25:28.766Z,32.49
2022-08-17T14:28:37.356Z,32.58
2022-08-17T14:31:40.419Z,32.61
2022-08-17T14:34:50.638Z,32.64
2022-08-17T14:37:59.442Z,32.62
2022-08-17T14:41:07.611Z,32.55
2022-08-17T14:44:15.853Z,32.51
2022-08-17T14:47:24.175Z,32.35
2022-08-17T14:50:35.466Z,32.25
2022-08-17T14:53:33.388Z,32.24
2022-08-17T14:56:42.246Z,32.24
2022-08-17T14:59:42.308Z,32.15
2022-08-17T15:02:51.002Z,31.96
2022-08-17T15:05:58.924Z,31.87
2022-08-17T15:09:07.608Z,31.80
2022-08-17T15:12:15.919Z,31.76
2022-08-17T15:15:24.136Z,31.77
2022-08-17T15:18:32.960Z,31.82
2022-08-17T15:21:41.213Z,31.87
2022-08-17T15:24:49.481Z,31.80
2022-08-17T15:27:57.915Z,31.76
2022-08-17T15:31:06.230Z,31.73
2022-08-17T15:34:14.527Z,31.65
2022-08-17T15:37:23.539Z,31.50
2022-08-17T15:40:31.972Z,31.28
2022-08-17T15:43:34.054Z,31.13
2022-08-17T15:46:42.964Z,30.94
2022-08-17T15:49:51.227Z,30.69
2022-08-17T15:53:00.667Z,30.40
2022-08-17T15:56:08.351Z,30.00
2022-08-17T15:59:17.048Z,29.82
2022-08-17T16:03:22.921Z,29.71
2022-08-17T16:05:31.361Z,29.65
2022-08-17T16:08:40.418Z,29.55
2022-08-17T16:11:53.771Z,29.34
2022-08-17T16:14:53.240Z,29.20
2022-08-17T16:18:01.397Z,29.29
2022-08-17T16:21:09.645Z,29.56
2022-08-17T16:24:18.532Z,29.89
2022-08-17T16:27:26.762Z,30.16
2022-08-17T16:30:35.252Z,30.19
2022-08-17T16:33:43.484Z,30.16
2022-08-17T16:36:50.505Z,30.00
2022-08-17T16:39:53.991Z,30.03
2022-08-17T16:43:02.098Z,30.05
2022-08-17T16:46:10.376Z,29.97
2022-08-17T16:49:34.449Z,29.87
2022-08-17T16:52:32.476Z,29.75
2022-08-17T16:55:29.669Z,29.53
2022-08-17T16:58:38.073Z,29.23
2022-08-17T17:01:48.442Z,28.93
2022-08-17T17:04:56.929Z,28.69
2022-08-17T17:08:05.732Z,28.46
2022-08-17T17:11:14.411Z,28.32
2022-08-17T17:14:22.613Z,28.25
2022-08-17T17:17:30.603Z,28.09
2022-08-17T17:20:38.514Z,28.01
2022-08-17T17:23:46.855Z,27.99
2022-08-17T17:26:55.407Z,28.04
2022-08-17T17:30:03.192Z,28.03
2022-08-17T17:33:11.835Z,27.86
2022-08-17T17:36:19.403Z,27.70
2022-08-17T17:39:27.312Z,27.58
2022-08-17T17:42:35.362Z,27.54
2022-08-17T17:45:43.051Z,27.66
2022-08-17T17:48:51.098Z,27.71
2022-08-17T17:52:08.692Z,27.69
2022-08-17T17:55:03.929Z,27.70
2022-08-17T17:58:12.044Z,27.66
2022-08-17T18:01:20.043Z,27.42
2022-08-17T18:04:28.118Z,26.98
2022-08-17T18:07:36.103Z,26.61
2022-08-17T18:10:44.005Z,26.35
2022-08-17T18:13:46.239Z,26.09
2022-08-17T18:16:55.632Z,25.93
2022-08-17T18:20:03.714Z,25.77
2022-08-17T18:23:11.629Z,25.61
2022-08-17T18:26:19.086Z,25.38
2022-08-17T18:29:27.225Z,25.17
2022-08-17T18:32:35.716Z,25.00
2022-08-17T18:35:43.251Z,24.90
2022-08-17T18:38:51.656Z,24.76
2022-08-17T18:41:58.970Z,24.57
2022-08-17T18:45:07.072Z,24.45
2022-08-17T18:48:15.419Z,24.39
2022-08-17T18:51:26.291Z,24.34
2022-08-17T18:54:28.746Z,24.26
2022-08-17T18:57:36.638Z,24.13
2022-08-17T19:00:44.928Z,24.10
2022-08-17T19:03:53.169Z,24.08
2022-08-17T19:07:01.333Z,24.16
2022-08-17T19:10:09.351Z,24.10
2022-08-17T19:13:24.307Z,23.98
2022-08-17T19:16:22.965Z,23.85
2022-08-17T19:19:30.695Z,23.71
2022-08-17T19:22:39.136Z,23.55
2022-08-17T19:25:47.067Z,23.42
2022-08-17T19:28:55.748Z,23.24
2022-08-17T19:32:03.759Z,23.07
2022-08-17T19:35:16.550Z,22.89
2022-08-17T19:38:14.952Z,22.78
2022-08-17T19:41:23.392Z,22.74
2022-08-17T19:44:31.518Z,22.72
2022-08-17T19:48:05.071Z,22.71
2022-08-17T19:50:44.747Z,22.72
2022-08-17T19:54:05.528Z,22.84
2022-08-17T19:57:01.738Z,22.92
2022-08-17T20:00:09.917Z,22.94
2022-08-17T20:03:18.113Z,22.87
2022-08-17T20:06:26.047Z,22.78
2022-08-17T20:09:34.118Z,22.80
2022-08-17T20:12:41.996Z,22.84
2022-08-17T20:15:49.557Z,22.84
2022-08-17T20:18:57.767Z,22.78
2022-08-17T20:22:05.341Z,22.80
2022-08-17T20:25:13.853Z,22.69
2022-08-17T20:28:22.045Z,22.53
2022-08-17T20:31:30.970Z,22.44
2022-08-17T20:34:39.387Z,22.41
2022-08-17T20:37:47.283Z,22.31
2022-08-17T20:40:55.094Z,22.20
2022-08-17T20:44:04.708Z,22.20
2022-08-17T20:47:12.622Z,22.25
2022-08-17T20:50:20.429Z,22.28
2022-08-17T20:53:28.390Z,22.16
2022-08-17T20:56:36.654Z,22.09
2022-08-17T20:59:45.102Z,22.10
2022-08-17T21:02:53.074Z,22.10
2022-08-17T21:06:01.338Z,22.13
2022-08-17T21:09:08.983Z,22.17
2022-08-17T21:12:17.121Z,22.16
2022-08-17T21:15:24.690Z,22.10
2022-08-17T21:18:32.953Z,22.06
2022-08-17T21:21:41.294Z,21.92
2022-08-17T21:24:49.283Z,21.78
2022-08-17T21:27:57.069Z,21.66
2022-08-17T21:31:05.741Z,21.59
2022-08-17T21:34:15.497Z,21.46
2022-08-17T21:37:23.713Z,21.38
2022-08-17T21:40:31.840Z,21.30
2022-08-17T21:43:39.665Z,21.26
2022-08-17T21:46:47.623Z,21.16
2022-08-17T21:49:55.573Z,21.05
2022-08-17T21:53:03.450Z,20.91
2022-08-17T21:56:10.944Z,20.76
2022-08-17T21:59:19.179Z,20.56
2022-08-17T22:02:26.997Z,20.56
2022-08-17T22:05:34.881Z,20.51
2022-08-17T22:08:43.082Z,20.56
2022-08-17T22:11:50.540Z,20.62
2022-08-17T22:14:58.730Z,20.64
2022-08-17T22:18:06.563Z,20.50
2022-08-17T22:21:14.133Z,20.34
2022-08-17T22:24:22.054Z,20.34
2022-08-17T22:27:29.962Z,20.38
2022-08-17T22:30:37.698Z,20.35
2022-08-17T22:33:45.504Z,20.43
2022-08-17T22:36:52.932Z,20.47
2022-08-17T22:40:01.162Z,20.34
2022-08-17T22:43:09.038Z,20.39
2022-08-17T22:46:16.475Z,20.38
2022-08-17T22:49:24.732Z,20.28
2022-08-17T22:52:32.723Z,20.33
2022-08-17T22:55:40.643Z,20.24
2022-08-17T22:58:58.796Z,20.23
2022-08-17T23:01:53.975Z,20.21
2022-08-17T23:05:01.787Z,20.24
2022-08-17T23:08:09.630Z,20.20
2022-08-17T23:11:17.052Z,20.24
2022-08-17T23:14:25.256Z,20.18
2022-08-17T23:17:37.213Z,20.16
2022-08-17T23:20:34.225Z,20.21
2022-08-17T23:23:42.242Z,20.27
2022-08-17T23:26:50.158Z,20.25
2022-08-17T23:29:58.365Z,20.25
2022-08-17T23:33:06.608Z,20.21
2022-08-17T23:36:14.479Z,20.09
2022-08-17T23:39:27.653Z,20.02
2022-08-17T23:42:25.449Z,19.94
2022-08-17T23:45:33.704Z,19.93
2022-08-17T23:48:41.320Z,19.83
2022-08-17T23:51:49.225Z,19.73
2022-08-17T23:54:57.559Z,19.76
2022-08-17T23:58:05.484Z,19.69
